El-djazair II — 7TBR — position and weather

sailwx.info

Track history (hours):
 
Tides and Currents Weather Stations Pressure Air Temp Water Temp Dewpoint Dewpoint Depression Visibility Wind Speed Wind Dir Waves Ship Positions

El-djazair II

Last reported at 2015-Sep-04 22:28 UTC. Time now 2015-Sep-05 01:06 UTC.
Position N 37°50' W 000°17'.

Length 146 m; draft 6.3 m.

Type: Passenger vessel. MMSI: 605026190.

Date/timePositionNaut miles runAvg speedWind from/ knotsBaromVisibWave heightAir tempDewpointWater temp
2015-Sep-04 22:28N 37°50' W 000°17'19 1.1
2015-Sep-04 05:22N 38°09' W 000°22'1721.2
2015-Sep-04 04:33N 37°52' W 000°24'2120.9
2015-Sep-04 03:33N 37°31' W 000°27'37 1.5
2015-Sep-03 02:14N 37°05' E 000°07'70 6.3
2015-Sep-02 15:09N 38°11' W 000°21'1423.1
2015-Sep-02 14:34N 37°58' W 000°23'2323.1
2015-Sep-02 13:33N 37°35' W 000°25'2323.1
2015-Sep-02 12:33N 37°12' W 000°28'20 1.4
2015-Sep-01 22:29N 37°31' W 000°25'2223.7
2015-Sep-01 21:34N 37°53' W 000°24'23 4.2
2015-Sep-01 16:06N 38°16' W 000°24'1018.9
2015-Sep-01 15:33N 38°06' W 000°22'2322.8
2015-Sep-01 14:33N 37°44' W 000°25'3023.0
2015-Sep-01 13:16N 37°14' W 000°28'14 0.9
2015-Aug-31 21:19N 37°28' W 000°30'46 6.9
2015-Aug-31 14:34N 38°14' W 000°24'2120.9
2015-Aug-31 13:33N 37°53' W 000°23'2121.3
2015-Aug-31 12:33N 37°32' W 000°25'2320.9
2015-Aug-31 11:28N 37°10' W 000°28'2121.3
2015-Aug-31 10:29N 36°49' W 000°30'4521.6
2015-Aug-31 08:24N 36°04' W 000°35'1821.5
2015-Aug-31 07:33N 35°46' W 000°38'3 0.5
2015-Aug-31 01:20N 35°43' W 000°39'0 0.1
2015-Aug-31 00:20N 35°43' W 000°39'1113.1
2015-Aug-30 23:29N 35°54' W 000°37'2222.5
2015-Aug-30 22:31N 36°15' W 000°34'2223.5
2015-Aug-30 21:33N 36°38' W 000°31'2423.4
2015-Aug-30 20:32N 37°02' W 000°29'2623.7
2015-Aug-30 19:27N 37°27' W 000°28'2123.4
2015-Aug-30 18:33N 37°48' W 000°26'18 0.5
2015-Aug-29 06:21N 38°06' W 000°22'1822.8
2015-Aug-29 05:34N 37°48' W 000°24'2322.4
2015-Aug-29 04:33N 37°27' W 000°35'5122.4
2015-Aug-29 02:17N 36°37' W 000°40'1622.4
2015-Aug-29 01:33N 36°20' W 000°39'38 5.1
2015-Aug-28 18:11N 35°43' W 000°39'0 0.3
2015-Aug-28 17:33N 35°43' W 000°39'1616.1
2015-Aug-28 16:33N 35°58' W 000°32'2323.1
2015-Aug-28 15:34N 36°17' W 000°17'2423.3
2015-Aug-28 14:32N 36°37' W 000°01'2323.6
2015-Aug-28 13:33N 36°56' E 000°16'3423.5
2015-Aug-28 12:07N 37°25' E 000°39'8523.3
2015-Aug-28 08:28N 38°36' E 001°38'2122.6
2015-Aug-28 07:33N 38°54' E 001°50'2322.9
2015-Aug-28 06:33N 39°15' E 002°01'2323.0
2015-Aug-28 05:33N 39°36' E 002°13'2322.8
2015-Aug-28 04:34N 39°56' E 002°29'2323.2
2015-Aug-28 03:33N 40°15' E 002°45'2323.0
2015-Aug-28 02:34N 40°35' E 003°00'2322.7
2015-Aug-28 01:33N 40°54' E 003°16'4522.6
2015-Aug-27 23:33N 41°33' E 003°47'6822.3
2015-Aug-27 20:29N 42°31' E 004°37'2122.9
2015-Aug-27 19:33N 42°49' E 004°52'2222.3
2015-Aug-27 18:33N 43°07' E 005°10'1413.7
2015-Aug-27 17:31N 43°18' E 005°22'0 0.0
2015-Aug-27 16:31N 43°18' E 005°22'0 0.0
2015-Aug-27 15:31N 43°18' E 005°22'0 0.0
2015-Aug-27 14:33N 43°18' E 005°22'8 7.8
2015-Aug-27 13:33N 43°13' E 005°14'2322.9
2015-Aug-27 12:33N 42°53' E 004°58'2322.7
2015-Aug-27 11:34N 42°34' E 004°42'11823.6
2015-Aug-27 06:33N 40°54' E 003°18'2323.3
2015-Aug-27 05:33N 40°34' E 003°01'2322.9
2015-Aug-27 04:33N 40°15' E 002°45'2322.9
2015-Aug-27 03:33N 39°56' E 002°29'2323.2
2015-Aug-27 02:34N 39°36' E 002°13'2323.2
2015-Aug-27 01:33N 39°15' E 002°01'2323.1
2015-Aug-27 00:34N 38°54' E 001°49'2323.2
2015-Aug-26 23:33N 38°33' E 001°36'2323.1
2015-Aug-26 22:33N 38°13' E 001°20'2323.0
2015-Aug-26 21:33N 37°54' E 001°05'2322.8
2015-Aug-26 20:33N 37°34' E 000°49'2222.4
2015-Aug-26 19:33N 37°16' E 000°34'2222.6
2015-Aug-26 18:33N 36°57' E 000°18'2222.1
2015-Aug-26 17:33N 36°38' E 000°04'2822.7
2015-Aug-26 16:19N 36°14' W 000°15'75 5.9
2015-Aug-26 03:31N 37°28' W 000°28'2222.6
2015-Aug-26 02:33N 37°50' W 000°24'  
Track history (hours):
 
Tides and Currents Weather Stations Pressure Air Temp Water Temp Dewpoint Dewpoint Depression Visibility Wind Speed Wind Dir Waves Ship Positions

El-djazair II

Last reported at 2015-Sep-04 22:28 UTC. Time now 2015-Sep-05 01:06 UTC.
Position N 37°50' W 000°17'.

Length 146 m; draft 6.3 m.

Type: Passenger vessel. MMSI: 605026190.

Date/timePositionNaut miles runAvg speedWind from/ knotsBaromVisibWave heightAir tempDewpointWater temp
2015-Sep-04 22:28N 37°50' W 000°17'19 1.1
2015-Sep-04 05:22N 38°09' W 000°22'1721.2
2015-Sep-04 04:33N 37°52' W 000°24'2120.9
2015-Sep-04 03:33N 37°31' W 000°27'37 1.5
2015-Sep-03 02:14N 37°05' E 000°07'70 6.3
2015-Sep-02 15:09N 38°11' W 000°21'1423.1
2015-Sep-02 14:34N 37°58' W 000°23'2323.1
2015-Sep-02 13:33N 37°35' W 000°25'2323.1
2015-Sep-02 12:33N 37°12' W 000°28'20 1.4
2015-Sep-01 22:29N 37°31' W 000°25'2223.7
2015-Sep-01 21:34N 37°53' W 000°24'23 4.2
2015-Sep-01 16:06N 38°16' W 000°24'1018.9
2015-Sep-01 15:33N 38°06' W 000°22'2322.8
2015-Sep-01 14:33N 37°44' W 000°25'3023.0
2015-Sep-01 13:16N 37°14' W 000°28'14 0.9
2015-Aug-31 21:19N 37°28' W 000°30'46 6.9
2015-Aug-31 14:34N 38°14' W 000°24'2120.9
2015-Aug-31 13:33N 37°53' W 000°23'2121.3
2015-Aug-31 12:33N 37°32' W 000°25'2320.9
2015-Aug-31 11:28N 37°10' W 000°28'2121.3
2015-Aug-31 10:29N 36°49' W 000°30'4521.6
2015-Aug-31 08:24N 36°04' W 000°35'1821.5
2015-Aug-31 07:33N 35°46' W 000°38'3 0.5
2015-Aug-31 01:20N 35°43' W 000°39'0 0.1
2015-Aug-31 00:20N 35°43' W 000°39'1113.1
2015-Aug-30 23:29N 35°54' W 000°37'2222.5
2015-Aug-30 22:31N 36°15' W 000°34'2223.5
2015-Aug-30 21:33N 36°38' W 000°31'2423.4
2015-Aug-30 20:32N 37°02' W 000°29'2623.7
2015-Aug-30 19:27N 37°27' W 000°28'2123.4
2015-Aug-30 18:33N 37°48' W 000°26'18 0.5
2015-Aug-29 06:21N 38°06' W 000°22'1822.8
2015-Aug-29 05:34N 37°48' W 000°24'2322.4
2015-Aug-29 04:33N 37°27' W 000°35'5122.4
2015-Aug-29 02:17N 36°37' W 000°40'1622.4
2015-Aug-29 01:33N 36°20' W 000°39'38 5.1
2015-Aug-28 18:11N 35°43' W 000°39'0 0.3
2015-Aug-28 17:33N 35°43' W 000°39'1616.1
2015-Aug-28 16:33N 35°58' W 000°32'2323.1
2015-Aug-28 15:34N 36°17' W 000°17'2423.3
2015-Aug-28 14:32N 36°37' W 000°01'2323.6
2015-Aug-28 13:33N 36°56' E 000°16'3423.5
2015-Aug-28 12:07N 37°25' E 000°39'8523.3
2015-Aug-28 08:28N 38°36' E 001°38'2122.6
2015-Aug-28 07:33N 38°54' E 001°50'2322.9
2015-Aug-28 06:33N 39°15' E 002°01'2323.0
2015-Aug-28 05:33N 39°36' E 002°13'2322.8
2015-Aug-28 04:34N 39°56' E 002°29'2323.2
2015-Aug-28 03:33N 40°15' E 002°45'2323.0
2015-Aug-28 02:34N 40°35' E 003°00'2322.7
2015-Aug-28 01:33N 40°54' E 003°16'4522.6
2015-Aug-27 23:33N 41°33' E 003°47'6822.3
2015-Aug-27 20:29N 42°31' E 004°37'2122.9
2015-Aug-27 19:33N 42°49' E 004°52'2222.3
2015-Aug-27 18:33N 43°07' E 005°10'1413.7
2015-Aug-27 17:31N 43°18' E 005°22'0 0.0
2015-Aug-27 16:31N 43°18' E 005°22'0 0.0
2015-Aug-27 15:31N 43°18' E 005°22'0 0.0
2015-Aug-27 14:33N 43°18' E 005°22'8 7.8
2015-Aug-27 13:33N 43°13' E 005°14'2322.9
2015-Aug-27 12:33N 42°53' E 004°58'2322.7
2015-Aug-27 11:34N 42°34' E 004°42'11823.6
2015-Aug-27 06:33N 40°54' E 003°18'2323.3
2015-Aug-27 05:33N 40°34' E 003°01'2322.9
2015-Aug-27 04:33N 40°15' E 002°45'2322.9
2015-Aug-27 03:33N 39°56' E 002°29'2323.2
2015-Aug-27 02:34N 39°36' E 002°13'2323.2
2015-Aug-27 01:33N 39°15' E 002°01'2323.1
2015-Aug-27 00:34N 38°54' E 001°49'2323.2
2015-Aug-26 23:33N 38°33' E 001°36'2323.1
2015-Aug-26 22:33N 38°13' E 001°20'2323.0
2015-Aug-26 21:33N 37°54' E 001°05'2322.8
2015-Aug-26 20:33N 37°34' E 000°49'2222.4
2015-Aug-26 19:33N 37°16' E 000°34'2222.6
2015-Aug-26 18:33N 36°57' E 000°18'2222.1
2015-Aug-26 17:33N 36°38' E 000°04'2822.7
2015-Aug-26 16:19N 36°14' W 000°15'75 5.9
2015-Aug-26 03:31N 37°28' W 000°28'2222.6
2015-Aug-26 02:33N 37°50' W 000°24'  

Dump ship's entire track history